Agate Bay, California
Current Conditions -  °F | °C
As of 6:15 PM on Saturday 22 Nov 2014 (Local Time) from KTRK Reporting Station
Clear Clear  
Wind Chill: 28°   Ceiling: Unl
Heat Index: 34°   Visibility: 10mi
Dew Point: 28°   Wind: 7mph
Humidity: 81%   Direction: 260°W
Pressure: 30.16"   Gusts: NA
Location:  39.2392°N, 120.102°W
Report Text: KTRK 230215Z AUTO 26006KT 10SM CLR 01/M02 A3016 RMK AO2
Loading
Personal Weather Stations






























Interactive Weather Map New forecast layout! Learn more

10-Day Weather Forecast

Advertisements
Track Severe Weather on mobile